Time;durP1;ratioP1;P1;durP2;ratioP2;P2;SDS_P1;SDS_P2;PMS_P1;PMS_P2;Temp;Humidity;BMP_temperature;BMP_pressure;BME280_temperature;BME280_humidity;BME280_pressure;Samples;Min_cycle;Max_cycle;Signal;HPM_P1;HPM_P2
2022/08/12 00:44:51;;;;;;;;;;;16.90;99.90;;;;;;6251787;22;20318;-73
2022/08/12 00:47:18;;;;;;;;;;;16.80;99.90;;;;;;6251397;22;19919;-72
2022/08/12 00:49:44;;;;;;;;;;;16.80;99.90;;;;;;6251603;22;19915;-73
2022/08/12 00:52:10;;;;;;;;;;;16.80;99.90;;;;;;6251716;22;19915;-72
2022/08/12 00:54:47;;;;;;;;;;;16.70;99.90;;;;;;6251651;22;19922;-71
2022/08/12 00:57:20;;;;;;;;;;;16.70;99.90;;;;;;6226499;22;19920;-72
2022/08/12 00:59:53;;;;;;;;;;;16.60;99.90;;;;;;6250790;22;19915;-72
2022/08/12 01:02:22;;;;;;;;;;;16.50;99.90;;;;;;6250722;22;19965;-71
2022/08/12 01:13:06;;;;;;;;;;;16.40;99.90;;;;;;6251378;22;19919;-71
2022/08/12 01:15:32;;;;;;;;;;;16.40;99.90;;;;;;6278468;22;20002;-74
2022/08/12 01:17:58;;;;;;;;;;;16.50;99.90;;;;;;6226153;22;20241;-72
2022/08/12 01:20:34;;;;;;;;;;;16.40;99.90;;;;;;6225839;22;19915;-73
2022/08/12 01:23:04;;;;;;;;;;;16.50;99.90;;;;;;6251247;22;19923;-73
2022/08/12 01:25:33;;;;;;;;;;;16.50;99.90;;;;;;6250832;22;19915;-72
2022/08/12 01:28:00;;;;;;;;;;;16.40;99.90;;;;;;6250886;22;19922;-74
2022/08/12 01:30:29;;;;;;;;;;;16.40;99.90;;;;;;6251400;22;20221;-72
2022/08/12 01:32:58;;;;;;;;;;;16.40;99.90;;;;;;6275651;22;20479;-72
2022/08/12 01:35:25;;;;;;;;;;;16.40;99.90;;;;;;6225752;22;19915;-73
2022/08/12 01:37:50;;;;;;;;;;;16.40;99.90;;;;;;6250371;22;20206;-73
2022/08/12 01:40:18;;;;;;;;;;;16.40;99.90;;;;;;6251228;22;19916;-72
2022/08/12 01:42:48;;;;;;;;;;;16.40;99.90;;;;;;6250869;22;19924;-72
2022/08/12 01:45:16;;;;;;;;;;;16.40;99.90;;;;;;6250665;22;20238;-73
2022/08/12 01:47:57;;;;;;;;;;;16.40;99.90;;;;;;6251222;22;19938;-72
2022/08/12 01:50:35;;;;;;;;;;;16.40;99.90;;;;;;6278038;22;20261;-74
2022/08/12 01:53:09;;;;;;;;;;;16.30;99.90;;;;;;6225777;22;19915;-73
2022/08/12 01:55:37;;;;;;;;;;;16.30;99.90;;;;;;6251078;22;19923;-73
2022/08/12 01:58:10;;;;;;;;;;;16.30;99.90;;;;;;6250932;22;19954;-71
2022/08/12 02:00:47;;;;;;;;;;;16.40;99.90;;;;;;6249332;22;19915;-72
2022/08/12 02:03:22;;;;;;;;;;;16.30;99.90;;;;;;6250912;22;19918;-73
2022/08/12 02:11:27;;;;;;;;;;;16.40;99.90;;;;;;6251019;22;19923;-73
2022/08/12 02:14:12;;;;;;;;;;;16.50;99.90;;;;;;6250766;22;19915;-72
2022/08/12 02:16:40;;;;;;;;;;;16.50;99.90;;;;;;6224207;22;19919;-72
2022/08/12 02:19:18;;;;;;;;;;;16.50;99.90;;;;;;6250595;22;19915;-73
2022/08/12 02:21:50;;;;;;;;;;;16.50;99.90;;;;;;6277998;22;19922;-73
2022/08/12 02:24:18;;;;;;;;;;;16.60;99.90;;;;;;6276165;22;19915;-73
2022/08/12 02:26:46;;;;;;;;;;;16.60;99.90;;;;;;6250673;22;19967;-74
2022/08/12 02:29:11;;;;;;;;;;;16.60;99.90;;;;;;6250690;22;20372;-71
2022/08/12 02:31:38;;;;;;;;;;;16.60;99.90;;;;;;6249900;22;19923;-73
2022/08/12 02:34:04;;;;;;;;;;;16.60;99.90;;;;;;6250617;22;20006;-71
2022/08/12 02:36:31;;;;;;;;;;;16.60;99.90;;;;;;6250522;22;19955;-73
2022/08/12 02:38:57;;;;;;;;;;;16.70;99.90;;;;;;6250569;22;19919;-74
2022/08/12 02:41:24;;;;;;;;;;;16.60;99.90;;;;;;6224939;22;19915;-72
2022/08/12 02:43:51;;;;;;;;;;;16.60;99.90;;;;;;6250820;22;20310;-73
2022/08/12 02:46:19;;;;;;;;;;;16.60;99.90;;;;;;6250604;22;19965;-72
2022/08/12 02:48:45;;;;;;;;;;;16.60;99.90;;;;;;6276253;22;19965;-72
2022/08/12 02:51:11;;;;;;;;;;;16.60;99.90;;;;;;6250617;22;19951;-72
2022/08/12 02:53:38;;;;;;;;;;;16.60;99.90;;;;;;6225382;22;19934;-72
2022/08/12 02:56:04;;;;;;;;;;;16.60;99.90;;;;;;6250051;22;19954;-72
2022/08/12 02:58:31;;;;;;;;;;;16.60;99.90;;;;;;6250035;22;19915;-72
2022/08/12 03:01:00;;;;;;;;;;;16.60;99.90;;;;;;6250441;22;19997;-73
2022/08/12 03:03:33;;;;;;;;;;;16.60;99.90;;;;;;6250197;22;20372;-73
2022/08/12 03:06:00;;;;;;;;;;;16.60;99.90;;;;;;6250601;22;19984;-73
2022/08/12 03:08:30;;;;;;;;;;;16.60;99.90;;;;;;6276697;22;19918;-73
2022/08/12 03:10:58;;;;;;;;;;;16.60;99.90;;;;;;6249949;22;19993;-71
2022/08/12 03:13:27;;;;;;;;;;;16.60;99.90;;;;;;6250233;22;19915;-71
2022/08/12 03:15:54;;;;;;;;;;;16.60;99.90;;;;;;6225111;22;20364;-73
2022/08/12 03:18:22;;;;;;;;;;;16.60;99.90;;;;;;6249823;22;19988;-72
2022/08/12 03:20:47;;;;;;;;;;;16.60;99.90;;;;;;6250501;22;19920;-72
2022/08/12 03:23:14;;;;;;;;;;;16.60;99.90;;;;;;6224802;22;19915;-71
2022/08/12 03:25:41;;;;;;;;;;;16.50;99.90;;;;;;6250576;22;19994;-71
2022/08/12 03:28:11;;;;;;;;;;;16.50;99.90;;;;;;6250266;22;19919;-73
2022/08/12 03:30:37;;;;;;;;;;;16.50;99.90;;;;;;6250916;22;19938;-73
2022/08/12 03:33:03;;;;;;;;;;;16.50;99.90;;;;;;6277354;22;19915;-72
2022/08/12 03:35:31;;;;;;;;;;;16.50;99.90;;;;;;6249421;22;19915;-71
2022/08/12 03:37:58;;;;;;;;;;;16.40;99.90;;;;;;6225224;22;19961;-72
2022/08/12 04:02:40;;;;;;;;;;;16.20;99.90;;;;;;6250601;22;19915;-72
2022/08/12 04:05:06;;;;;;;;;;;16.20;99.90;;;;;;6250276;22;19990;-72
2022/08/12 04:07:32;;;;;;;;;;;16.20;99.90;;;;;;6276925;22;20333;-71
2022/08/12 04:09:58;;;;;;;;;;;16.20;99.90;;;;;;6249438;22;19968;-73
2022/08/12 04:15:11;;;;;;;;;;;16.20;99.90;;;;;;6251032;22;19998;-71
2022/08/12 04:17:38;;;;;;;;;;;16.20;99.90;;;;;;6251857;22;19934;-71
2022/08/12 04:20:04;;;;;;;;;;;16.20;99.90;;;;;;6251614;22;19922;-72
2022/08/12 04:22:32;;;;;;;;;;;16.10;99.90;;;;;;6201667;22;19915;-72
2022/08/12 04:25:01;;;;;;;;;;;16.20;99.90;;;;;;6251457;22;19922;-72
2022/08/12 04:27:28;;;;;;;;;;;16.10;99.90;;;;;;6251868;22;19965;-72
2022/08/12 04:29:54;;;;;;;;;;;16.10;99.90;;;;;;6278999;22;19915;-71
2022/08/12 04:32:20;;;;;;;;;;;16.10;99.90;;;;;;6226672;22;19921;-72
2022/08/12 04:34:45;;;;;;;;;;;16.10;99.90;;;;;;6251878;22;19915;-72
2022/08/12 04:37:12;;;;;;;;;;;16.10;99.90;;;;;;6251371;22;20326;-74
2022/08/12 04:39:38;;;;;;;;;;;16.10;99.90;;;;;;6251163;22;19926;-72
2022/08/12 04:42:03;;;;;;;;;;;16.20;99.90;;;;;;6251629;22;19974;-71
2022/08/12 04:44:30;;;;;;;;;;;16.10;99.90;;;;;;6251649;22;19915;-72
2022/08/12 04:46:56;;;;;;;;;;;16.20;99.90;;;;;;6251229;22;19923;-71
2022/08/12 04:49:23;;;;;;;;;;;16.20;99.90;;;;;;6251708;22;19915;-71
2022/08/12 04:51:48;;;;;;;;;;;16.20;99.90;;;;;;6251938;22;19990;-72
2022/08/12 04:54:14;;;;;;;;;;;16.20;99.90;;;;;;6251383;22;20353;-71
2022/08/12 04:56:40;;;;;;;;;;;16.20;99.90;;;;;;6251569;22;19938;-72
2022/08/12 04:59:06;;;;;;;;;;;16.20;99.90;;;;;;6251590;22;19922;-72
2022/08/12 05:01:32;;;;;;;;;;;16.20;99.90;;;;;;6251521;22;20215;-72
2022/08/12 05:03:58;;;;;;;;;;;16.20;99.90;;;;;;6226093;22;19926;-71
2022/08/12 05:06:24;;;;;;;;;;;16.30;99.90;;;;;;6251500;22;19915;-72
2022/08/12 05:08:53;;;;;;;;;;;16.30;99.90;;;;;;6251012;22;19915;-72
2022/08/12 05:11:24;;;;;;;;;;;16.40;99.90;;;;;;6251490;22;20383;-73
2022/08/12 05:13:54;;;;;;;;;;;16.40;99.90;;;;;;6278469;22;19961;-71
2022/08/12 05:16:20;;;;;;;;;;;16.50;99.90;;;;;;6251387;22;19915;-72
2022/08/12 05:18:45;;;;;;;;;;;16.60;99.90;;;;;;6201491;22;19922;-71
2022/08/12 05:21:11;;;;;;;;;;;16.60;99.90;;;;;;6251412;22;19954;-71
2022/08/12 05:23:37;;;;;;;;;;;16.70;99.90;;;;;;6251127;22;19950;-69
2022/08/12 05:26:04;;;;;;;;;;;16.80;99.90;;;;;;6251450;22;19947;-68
2022/08/12 05:28:30;;;;;;;;;;;16.90;99.90;;;;;;6251326;22;19922;-68
2022/08/12 05:30:57;;;;;;;;;;;17.00;99.90;;;;;;6278489;22;19955;-68
2022/08/12 05:33:30;;;;;;;;;;;17.10;99.90;;;;;;6251257;22;19915;-68
2022/08/12 05:35:55;;;;;;;;;;;17.10;99.90;;;;;;6278536;22;19915;-69
2022/08/12 05:41:17;;;;;;;;;;;17.40;99.90;;;;;;6249998;22;19969;-69
2022/08/12 05:44:03;;;;;;;;;;;17.50;99.90;;;;;;6249024;22;19915;-68
2022/08/12 05:46:29;;;;;;;;;;;17.70;99.90;;;;;;6249111;22;19916;-69
2022/08/12 05:48:55;;;;;;;;;;;17.90;99.90;;;;;;6249676;22;19994;-68
2022/08/12 05:51:23;;;;;;;;;;;18.00;99.90;;;;;;6250090;22;19954;-69
2022/08/12 05:53:50;;;;;;;;;;;18.20;99.90;;;;;;6249708;22;19919;-70
2022/08/12 05:56:23;;;;;;;;;;;18.30;99.90;;;;;;6277099;22;19998;-69
2022/08/12 05:58:50;;;;;;;;;;;18.50;99.90;;;;;;6250401;22;19915;-68
2022/08/12 06:01:15;;;;;;;;;;;18.70;99.90;;;;;;6251135;22;19915;-69
2022/08/12 06:03:41;;;;;;;;;;;18.80;99.90;;;;;;6250935;22;19922;-69
2022/08/12 06:06:50;;;;;;;;;;;;;;;;;;;;;
2022/08/12 06:57:06;;;;;;;;;;;;;;;;;;;;;
2022/08/12 07:00:09;;;;;;;;;;;21.80;99.90;;;;;;6276885;22;19915;-76
2022/08/12 07:02:45;;;;;;;;;;;22.00;99.90;;;;;;6248862;22;19938;-74
2022/08/12 07:05:10;;;;;;;;;;;22.00;99.90;;;;;;6218729;23;19911;-73
2022/08/12 07:07:49;;;;;;;;;;;;;;;;;;;;;
2022/08/12 07:10:25;;;;;;;;;;;22.30;99.90;;;;;;6218242;23;19916;-75
2022/08/12 07:13:00;;;;;;;;;;;22.50;99.90;;;;;;6246625;23;19916;-75
2022/08/12 07:15:36;;;;;;;;;;;22.60;99.90;;;;;;6220091;23;20261;-75
2022/08/12 07:18:21;;;;;;;;;;;22.60;99.90;;;;;;6219696;23;20326;-74
2022/08/12 07:20:51;;;;;;;;;;;22.60;99.90;;;;;;6219784;23;19951;-74
2022/08/12 07:23:19;;;;;;;;;;;22.80;99.90;;;;;;6219772;22;20322;-73
2022/08/12 07:26:06;;;;;;;;;;;22.90;99.90;;;;;;6219788;23;20265;-75
2022/08/12 07:28:43;;;;;;;;;;;23.30;99.90;;;;;;6219587;23;19950;-75
2022/08/12 07:31:18;;;;;;;;;;;23.30;99.90;;;;;;6219012;23;19912;-75
2022/08/12 07:33:58;;;;;;;;;;;23.60;99.90;;;;;;6219333;23;19994;-75
2022/08/12 07:36:34;;;;;;;;;;;23.90;99.90;;;;;;6194355;23;19919;-74
2022/08/12 07:39:09;;;;;;;;;;;23.90;99.90;;;;;;6219510;23;19990;-75
2022/08/12 07:41:43;;;;;;;;;;;23.80;99.90;;;;;;6211386;23;19939;-74
2022/08/12 07:44:12;;;;;;;;;;;24.10;99.90;;;;;;6219581;23;19942;-75
2022/08/12 07:46:46;;;;;;;;;;;24.10;99.90;;;;;;6221333;23;19962;-75
2022/08/12 07:49:40;;;;;;;;;;;24.30;99.90;;;;;;6221812;23;19938;-75
2022/08/12 07:52:17;;;;;;;;;;;24.40;99.90;;;;;;6218420;23;19951;-75
2022/08/12 07:54:54;;;;;;;;;;;24.40;99.90;;;;;;6220629;23;20385;-75
2022/08/12 07:57:40;;;;;;;;;;;24.50;99.90;;;;;;6215643;23;19916;-75
2022/08/12 08:00:18;;;;;;;;;;;24.90;99.90;;;;;;6215638;23;20333;-74
2022/08/12 08:03:04;;;;;;;;;;;24.70;99.90;;;;;;6216078;23;19927;-76
2022/08/12 08:08:55;;;;;;;;;;;25.00;99.90;;;;;;6155470;23;19923;-78
2022/08/12 08:14:06;;;;;;;;;;;25.00;99.90;;;;;;6130783;23;19952;-76
2022/08/12 08:16:39;;;;;;;;;;;25.20;99.90;;;;;;6163376;23;20018;-73
2022/08/12 08:19:18;;;;;;;;;;;25.40;99.90;;;;;;6241360;23;20038;-75
2022/08/12 08:22:14;;;;;;;;;;;25.40;99.90;;;;;;6236991;23;19975;-72
2022/08/12 08:24:39;;;;;;;;;;;25.70;99.90;;;;;;6215985;23;20373;-72
2022/08/12 08:27:16;;;;;;;;;;;25.40;99.90;;;;;;6214396;23;19912;-74
2022/08/12 08:29:50;;;;;;;;;;;25.70;99.90;;;;;;6216274;23;20003;-73
2022/08/12 08:32:38;;;;;;;;;;;25.60;99.90;;;;;;6216124;23;19916;-81
2022/08/12 08:35:10;;;;;;;;;;;25.80;99.90;;;;;;6190817;23;19916;-72
2022/08/12 08:37:36;;;;;;;;;;;26.10;99.90;;;;;;6216571;23;20382;-72
2022/08/12 08:43:03;;;;;;;;;;;26.20;99.90;;;;;;6215818;23;19911;-77
2022/08/12 09:06:22;;;;;;;;;;;27.10;99.90;;;;;;5982081;24;20327;-75
2022/08/12 09:09:23;;;;;;;;;;;27.10;99.90;;;;;;6025872;23;19993;-74
2022/08/12 09:15:59;;;;;;;;;;;;;;;;;;;;;
2022/08/12 09:26:21;;;;;;;;;;;;;;;;;;;;;
2022/08/12 09:36:10;;;;;;;;;;;28.20;97.10;;;;;;5926319;24;19964;-83
2022/08/12 09:59:18;;;;;;;;;;;28.30;91.80;;;;;;5764502;24;19955;-72
2022/08/12 10:08:39;;;;;;;;;;;28.80;91.10;;;;;;6047275;23;19910;-81
2022/08/12 10:14:16;;;;;;;;;;;28.90;90.90;;;;;;6218611;23;19919;-80
2022/08/12 10:16:57;;;;;;;;;;;28.90;88.90;;;;;;6244502;23;20234;-80
2022/08/12 10:19:27;;;;;;;;;;;29.20;87.90;;;;;;6218345;23;20373;-80
2022/08/12 10:31:31;;;;;;;;;;;28.80;85.10;;;;;;6219227;23;19911;-79
2022/08/12 10:37:50;;;;;;;;;;;29.20;81.50;;;;;;6098688;23;19924;-80
2022/08/12 10:40:21;;;;;;;;;;;29.00;81.50;;;;;;6193636;23;19919;-80
2022/08/12 10:45:55;;;;;;;;;;;29.00;80.40;;;;;;6219232;23;19911;-83
2022/08/12 10:48:29;;;;;;;;;;;29.30;79.20;;;;;;6218828;23;19911;-79
2022/08/12 10:51:02;;;;;;;;;;;29.30;79.20;;;;;;6224143;23;20278;-79
2022/08/12 10:53:29;;;;;;;;;;;29.20;75.80;;;;;;6228727;22;20338;-80
2022/08/12 10:55:55;;;;;;;;;;;29.20;78.10;;;;;;6219345;23;19938;-79
2022/08/12 10:58:28;;;;;;;;;;;29.40;78.00;;;;;;6193232;23;20314;-81
2022/08/12 11:00:56;;;;;;;;;;;29.40;76.10;;;;;;6218980;23;20223;-79
2022/08/12 11:03:22;;;;;;;;;;;29.30;75.90;;;;;;6218823;22;19943;-79
2022/08/12 11:16:28;;;;;;;;;;;29.70;69.60;;;;;;6065139;23;20245;-76
2022/08/12 11:19:20;;;;;;;;;;;30.00;69.20;;;;;;6017239;23;20236;-81
2022/08/12 11:21:46;;;;;;;;;;;29.90;70.30;;;;;;6024327;23;19940;-79
2022/08/12 11:27:10;;;;;;;;;;;30.30;72.70;;;;;;6220803;23;19958;-77
2022/08/12 11:29:36;;;;;;;;;;;30.30;71.20;;;;;;6245452;23;19919;-78
2022/08/12 11:35:56;;;;;;;;;;;30.30;73.70;;;;;;6246882;22;19910;-81
2022/08/12 11:45:43;;;;;;;;;;;30.20;69.50;;;;;;6256338;22;20641;-79
2022/08/12 11:52:00;;;;;;;;;;;30.00;74.00;;;;;;6219944;23;19912;-82
2022/08/12 11:57:55;;;;;;;;;;;30.10;74.70;;;;;;6246673;23;20225;-75
2022/08/12 12:00:20;;;;;;;;;;;30.40;72.80;;;;;;6194559;23;20265;-78
2022/08/12 12:02:52;;;;;;;;;;;30.30;75.30;;;;;;6219683;23;19970;-75
2022/08/12 12:05:18;;;;;;;;;;;30.20;74.60;;;;;;6195178;23;19915;-77
2022/08/12 12:10:45;;;;;;;;;;;30.40;75.90;;;;;;6188645;23;19915;-79
2022/08/12 12:13:23;;;;;;;;;;;30.60;75.40;;;;;;6219770;23;20262;-79
2022/08/12 12:15:57;;;;;;;;;;;30.60;77.10;;;;;;6222325;23;19916;-80
2022/08/12 12:18:41;;;;;;;;;;;30.70;75.50;;;;;;6233562;23;19922;-80
2022/08/12 12:21:27;;;;;;;;;;;30.50;75.70;;;;;;6224887;23;19911;-82
2022/08/12 12:24:27;;;;;;;;;;;30.30;74.00;;;;;;6195825;22;20286;-82
2022/08/12 12:27:02;;;;;;;;;;;30.50;71.40;;;;;;6193303;23;20282;-81
2022/08/12 12:29:33;;;;;;;;;;;30.40;73.60;;;;;;6221454;23;19957;-81
2022/08/12 12:32:04;;;;;;;;;;;30.30;76.80;;;;;;6220962;23;19911;-84
2022/08/12 12:34:41;;;;;;;;;;;30.40;75.90;;;;;;6222106;23;19949;-81
2022/08/12 12:37:25;;;;;;;;;;;30.50;75.20;;;;;;6221631;23;20222;-84
2022/08/12 12:40:02;;;;;;;;;;;30.30;70.60;;;;;;6221355;23;19915;-82
2022/08/12 12:42:45;;;;;;;;;;;30.30;76.10;;;;;;6218339;23;19912;-83
2022/08/12 12:45:17;;;;;;;;;;;30.30;73.40;;;;;;6220464;23;19915;-83
2022/08/12 12:48:08;;;;;;;;;;;30.40;73.70;;;;;;6196676;23;20044;-83
2022/08/12 12:50:37;;;;;;;;;;;30.40;74.80;;;;;;6220175;23;19912;-85
2022/08/12 12:53:07;;;;;;;;;;;30.50;74.50;;;;;;6220089;23;19912;-82
2022/08/12 12:56:11;;;;;;;;;;;30.30;74.50;;;;;;6220033;23;19982;-81
2022/08/12 12:58:38;;;;;;;;;;;30.40;74.90;;;;;;6195785;23;19987;-81
2022/08/12 13:01:15;;;;;;;;;;;30.40;71.90;;;;;;6220472;23;19983;-82
2022/08/12 13:03:44;;;;;;;;;;;30.60;72.50;;;;;;6220735;22;19916;-83
2022/08/12 13:06:24;;;;;;;;;;;30.60;73.30;;;;;;6221413;23;19912;-84
2022/08/12 13:08:56;;;;;;;;;;;30.70;73.40;;;;;;6221537;23;19986;-83
2022/08/12 13:11:25;;;;;;;;;;;30.70;73.80;;;;;;6220870;23;19911;-81
2022/08/12 13:13:58;;;;;;;;;;;30.80;71.70;;;;;;6220806;22;20314;-81
2022/08/12 13:16:28;;;;;;;;;;;30.90;72.10;;;;;;6220864;23;19911;-84
2022/08/12 13:18:57;;;;;;;;;;;31.00;72.00;;;;;;6220916;23;19923;-82
2022/08/12 13:21:29;;;;;;;;;;;31.10;71.50;;;;;;6221727;23;20273;-82
2022/08/12 13:24:02;;;;;;;;;;;31.20;70.80;;;;;;6221049;22;20310;-84
2022/08/12 13:26:33;;;;;;;;;;;31.00;72.20;;;;;;6219759;23;19912;-84
2022/08/12 13:29:04;;;;;;;;;;;31.10;71.90;;;;;;6220153;23;19979;-83
2022/08/12 13:31:45;;;;;;;;;;;31.20;72.10;;;;;;6220363;23;19912;-80
2022/08/12 13:34:18;;;;;;;;;;;31.10;72.20;;;;;;6220612;23;19912;-81
2022/08/12 13:36:49;;;;;;;;;;;31.20;71.30;;;;;;6224066;23;19912;-81
2022/08/12 13:39:15;;;;;;;;;;;31.10;72.00;;;;;;6200030;23;19916;-83
2022/08/12 13:41:43;;;;;;;;;;;30.90;71.40;;;;;;6232442;23;19918;-81
2022/08/12 13:44:21;;;;;;;;;;;30.90;70.80;;;;;;6230401;23;19911;-85
2022/08/12 13:46:47;;;;;;;;;;;30.90;71.30;;;;;;6221305;23;19912;-80
2022/08/12 13:49:16;;;;;;;;;;;31.20;71.00;;;;;;6220827;23;19911;-81
2022/08/12 13:51:52;;;;;;;;;;;31.10;70.50;;;;;;6221248;23;20260;-84
2022/08/12 13:54:19;;;;;;;;;;;31.30;71.40;;;;;;6221028;23;19916;-84
2022/08/12 13:56:50;;;;;;;;;;;31.10;70.50;;;;;;6219467;23;20372;-84
2022/08/12 13:59:28;;;;;;;;;;;31.30;69.70;;;;;;6220531;23;20084;-84
2022/08/12 14:02:09;;;;;;;;;;;31.50;69.00;;;;;;6214766;23;19912;-82
2022/08/12 14:04:48;;;;;;;;;;;31.30;68.60;;;;;;6238038;22;19947;-81
2022/08/12 14:07:14;;;;;;;;;;;31.30;67.60;;;;;;6214944;23;20273;-82
2022/08/12 14:12:38;;;;;;;;;;;31.40;67.80;;;;;;6215390;23;19912;-82
2022/08/12 14:15:07;;;;;;;;;;;31.30;66.80;;;;;;6215689;23;19911;-80
2022/08/12 14:17:34;;;;;;;;;;;31.40;66.80;;;;;;6215332;23;20266;-80
2022/08/12 14:23:26;;;;;;;;;;;31.30;65.20;;;;;;6208660;23;19912;-81
2022/08/12 14:25:58;;;;;;;;;;;31.40;65.30;;;;;;6190200;23;19911;-80
2022/08/12 14:28:25;;;;;;;;;;;31.30;65.40;;;;;;6191361;23;20234;-84
2022/08/12 14:30:55;;;;;;;;;;;31.60;64.50;;;;;;6215307;23;19912;-83
2022/08/12 14:33:28;;;;;;;;;;;31.70;64.80;;;;;;6215553;23;19911;-81
2022/08/12 14:35:54;;;;;;;;;;;31.70;65.90;;;;;;6190023;23;19912;-83
2022/08/12 14:38:27;;;;;;;;;;;31.80;63.10;;;;;;6215484;23;19948;-81
2022/08/12 14:40:59;;;;;;;;;;;32.00;59.90;;;;;;6215277;23;19912;-80
2022/08/12 14:43:32;;;;;;;;;;;31.70;61.50;;;;;;6190926;23;19995;-79
2022/08/12 14:46:07;;;;;;;;;;;31.70;60.70;;;;;;6190244;23;20203;-82
2022/08/12 14:48:33;;;;;;;;;;;31.90;60.50;;;;;;6190972;23;20276;-81
2022/08/12 14:50:59;;;;;;;;;;;31.80;62.00;;;;;;6215122;23;19943;-82
2022/08/12 14:53:30;;;;;;;;;;;32.00;60.90;;;;;;6215455;23;19958;-82
2022/08/12 14:55:56;;;;;;;;;;;31.90;59.90;;;;;;6214107;23;20388;-80
2022/08/12 14:58:22;;;;;;;;;;;32.00;59.60;;;;;;6215324;23;20208;-82
2022/08/12 15:03:34;;;;;;;;;;;32.00;60.70;;;;;;6220237;23;20381;-82
2022/08/12 15:06:01;;;;;;;;;;;32.40;59.00;;;;;;6226452;23;19911;-80
2022/08/12 15:08:30;;;;;;;;;;;32.40;58.60;;;;;;6229936;23;20290;-80
2022/08/12 15:10:55;;;;;;;;;;;32.60;58.70;;;;;;6222050;23;19918;-82
2022/08/12 15:13:25;;;;;;;;;;;32.20;57.00;;;;;;6220106;23;19912;-82
2022/08/12 15:15:55;;;;;;;;;;;32.60;58.80;;;;;;6219884;23;19943;-80
2022/08/12 15:18:23;;;;;;;;;;;32.90;60.40;;;;;;6219628;23;19919;-80
2022/08/12 15:20:50;;;;;;;;;;;33.20;60.60;;;;;;6219976;23;19939;-80
2022/08/12 15:23:17;;;;;;;;;;;33.30;59.30;;;;;;6219735;23;19986;-82
2022/08/12 15:25:44;;;;;;;;;;;33.40;60.20;;;;;;6218892;23;19911;-80
2022/08/12 15:28:09;;;;;;;;;;;33.50;60.40;;;;;;6220153;23;20337;-82
2022/08/12 15:30:36;;;;;;;;;;;33.20;61.80;;;;;;6220169;23;19912;-81
2022/08/12 15:33:08;;;;;;;;;;;33.30;59.90;;;;;;6220019;23;19923;-83
2022/08/12 15:35:38;;;;;;;;;;;33.30;60.80;;;;;;6218827;23;19915;-81
2022/08/12 15:38:09;;;;;;;;;;;33.30;60.10;;;;;;6219719;23;19916;-80
2022/08/12 15:40:36;;;;;;;;;;;33.30;60.00;;;;;;6220243;23;19949;-79
2022/08/12 15:43:03;;;;;;;;;;;33.30;61.00;;;;;;6219293;23;20233;-80
2022/08/12 15:45:32;;;;;;;;;;;33.30;60.90;;;;;;6219498;23;19912;-81
2022/08/12 15:47:58;;;;;;;;;;;33.40;62.10;;;;;;6226111;23;19919;-80
2022/08/12 15:50:24;;;;;;;;;;;32.80;59.80;;;;;;6228740;23;20355;-79
2022/08/12 15:52:51;;;;;;;;;;;32.40;63.10;;;;;;6198214;23;19911;-82
2022/08/12 15:55:23;;;;;;;;;;;32.70;62.00;;;;;;6219501;23;19915;-79
2022/08/12 15:57:52;;;;;;;;;;;32.60;61.00;;;;;;6219876;23;20318;-82
2022/08/12 16:00:25;;;;;;;;;;;32.90;58.80;;;;;;6219958;23;19938;-83
2022/08/12 16:02:52;;;;;;;;;;;32.40;60.10;;;;;;6219566;23;20375;-80
2022/08/12 16:05:22;;;;;;;;;;;32.90;58.90;;;;;;6194877;23;19916;-82
2022/08/12 16:07:49;;;;;;;;;;;33.20;59.50;;;;;;6221367;23;20310;-83
2022/08/12 16:10:28;;;;;;;;;;;33.60;58.40;;;;;;6221296;23;20216;-82
2022/08/12 16:12:57;;;;;;;;;;;33.40;58.50;;;;;;6221788;23;19934;-81
2022/08/12 16:15:24;;;;;;;;;;;33.30;56.70;;;;;;6221725;23;19911;-78
2022/08/12 16:21:45;;;;;;;;;;;;;;;;;;;;;
2022/08/12 16:24:17;;;;;;;;;;;31.40;59.70;;;;;;6119255;23;19917;-78
2022/08/12 16:26:43;;;;;;;;;;;30.80;61.70;;;;;;6121490;23;19948;-77
2022/08/12 16:29:09;;;;;;;;;;;30.10;60.80;;;;;;6099493;23;20287;-76
2022/08/12 16:31:39;;;;;;;;;;;29.80;60.60;;;;;;6099508;23;19913;-73
2022/08/12 16:34:19;;;;;;;;;;;29.30;62.20;;;;;;6098359;23;19913;-75
2022/08/12 16:36:47;;;;;;;;;;;28.70;63.40;;;;;;6075424;23;19959;-77
2022/08/12 16:39:13;;;;;;;;;;;28.60;64.60;;;;;;6124052;23;19916;-80
2022/08/12 16:41:38;;;;;;;;;;;28.30;63.30;;;;;;6123835;23;19913;-76
2022/08/12 16:44:04;;;;;;;;;;;28.20;64.60;;;;;;6099531;23;19912;-79
2022/08/12 16:49:51;;;;;;;;;;;27.80;66.30;;;;;;6245642;23;19910;-82
2022/08/12 16:52:25;;;;;;;;;;;27.70;64.80;;;;;;6219934;23;19921;-81
2022/08/12 16:55:21;;;;;;;;;;;27.50;66.00;;;;;;6218888;23;19912;-80
2022/08/12 16:57:59;;;;;;;;;;;27.40;66.90;;;;;;6194408;23;20046;-80
2022/08/12 17:04:10;;;;;;;;;;;27.10;69.30;;;;;;6242980;22;19953;-73
2022/08/12 17:07:25;;;;;;;;;;;27.00;70.80;;;;;;6245886;23;20237;-75
2022/08/12 17:09:54;;;;;;;;;;;26.90;71.40;;;;;;6194682;23;19955;-71
2022/08/12 17:12:27;;;;;;;;;;;26.70;73.50;;;;;;6220504;23;19918;-74
2022/08/12 17:15:01;;;;;;;;;;;26.60;73.80;;;;;;6221530;23;20269;-77
2022/08/12 17:20:45;;;;;;;;;;;26.50;74.10;;;;;;6224265;23;20240;-79
2022/08/12 17:23:17;;;;;;;;;;;26.40;74.90;;;;;;6193756;23;19916;-77
2022/08/12 17:25:59;;;;;;;;;;;26.40;75.30;;;;;;6219087;23;19911;-77
2022/08/12 17:28:47;;;;;;;;;;;26.30;75.10;;;;;;6219492;23;19912;-77
2022/08/12 17:31:17;;;;;;;;;;;26.30;76.30;;;;;;6223330;23;19923;-77
2022/08/12 17:33:46;;;;;;;;;;;26.20;75.90;;;;;;6219981;23;19918;-77
2022/08/12 17:36:15;;;;;;;;;;;26.10;76.60;;;;;;6195809;23;19915;-76
2022/08/12 17:38:43;;;;;;;;;;;26.00;77.40;;;;;;6220827;23;20317;-75
2022/08/12 17:41:14;;;;;;;;;;;25.90;78.50;;;;;;6220869;23;19915;-76
2022/08/12 17:43:45;;;;;;;;;;;25.80;78.10;;;;;;6220356;23;19922;-77
2022/08/12 17:46:19;;;;;;;;;;;25.80;79.90;;;;;;6218462;23;19916;-76
2022/08/12 17:48:54;;;;;;;;;;;25.60;80.20;;;;;;6218902;23;19930;-75
2022/08/12 17:51:33;;;;;;;;;;;25.50;81.70;;;;;;6217762;23;20316;-77
2022/08/12 17:53:58;;;;;;;;;;;25.40;84.00;;;;;;6220587;23;19993;-76
2022/08/12 17:56:26;;;;;;;;;;;25.30;84.50;;;;;;6219743;23;19911;-78
2022/08/12 17:59:24;;;;;;;;;;;25.20;86.30;;;;;;6194493;23;19915;-82
2022/08/12 18:01:50;;;;;;;;;;;25.20;85.70;;;;;;6182754;23;20225;-78
2022/08/12 18:04:18;;;;;;;;;;;25.10;87.00;;;;;;6195375;22;19919;-75
2022/08/12 18:06:47;;;;;;;;;;;24.90;90.20;;;;;;6219690;23;20390;-77
2022/08/12 18:09:16;;;;;;;;;;;24.70;90.80;;;;;;6219801;23;19912;-77
2022/08/12 18:14:25;;;;;;;;;;;24.60;92.40;;;;;;6219588;22;19915;-78
2022/08/12 18:17:08;;;;;;;;;;;24.60;92.80;;;;;;6219428;23;19986;-79
2022/08/12 18:19:34;;;;;;;;;;;24.40;95.10;;;;;;6220008;23;19983;-81
2022/08/12 18:22:00;;;;;;;;;;;24.30;96.20;;;;;;6219391;23;20281;-76
2022/08/12 18:24:25;;;;;;;;;;;24.20;97.50;;;;;;6219526;22;19920;-76
2022/08/12 18:26:53;;;;;;;;;;;24.20;97.90;;;;;;6219947;23;20269;-73
2022/08/12 18:29:19;;;;;;;;;;;24.10;99.10;;;;;;6219469;23;19987;-74
2022/08/12 18:31:45;;;;;;;;;;;24.10;99.10;;;;;;6219211;23;19912;-73
2022/08/12 18:34:14;;;;;;;;;;;24.00;99.90;;;;;;6219436;22;19918;-75
2022/08/12 18:36:41;;;;;;;;;;;23.90;99.90;;;;;;6219141;23;19923;-76
2022/08/12 18:39:09;;;;;;;;;;;23.90;99.90;;;;;;6220009;23;20001;-74
2022/08/12 18:41:36;;;;;;;;;;;23.80;99.90;;;;;;6220080;23;19916;-74
2022/08/12 18:44:07;;;;;;;;;;;23.70;99.90;;;;;;6220917;23;20333;-74
2022/08/12 18:46:54;;;;;;;;;;;23.70;99.90;;;;;;6221699;23;19915;-79
2022/08/12 18:49:26;;;;;;;;;;;23.60;99.90;;;;;;6195708;23;19911;-74
2022/08/12 18:59:17;;;;;;;;;;;23.40;99.90;;;;;;6245863;23;19919;-73
2022/08/12 19:02:20;;;;;;;;;;;23.20;99.90;;;;;;6245410;23;19951;-75
2022/08/12 19:04:45;;;;;;;;;;;23.10;99.90;;;;;;6187213;23;19922;-76
2022/08/12 19:07:24;;;;;;;;;;;23.00;99.90;;;;;;6187143;23;19991;-70
2022/08/12 19:09:56;;;;;;;;;;;22.80;99.90;;;;;;6187766;23;19987;-78
2022/08/12 19:15:52;;;;;;;;;;;22.40;99.90;;;;;;6213972;23;19911;-78
2022/08/12 19:21:40;;;;;;;;;;;22.30;99.90;;;;;;6186284;23;19994;-75
2022/08/12 19:26:50;;;;;;;;;;;22.00;99.90;;;;;;6187975;23;19919;-75
2022/08/12 19:29:20;;;;;;;;;;;21.90;99.90;;;;;;6212877;23;19924;-79
2022/08/12 19:31:49;;;;;;;;;;;21.90;99.90;;;;;;6187868;23;19927;-78
2022/08/12 19:34:35;;;;;;;;;;;21.70;99.90;;;;;;6187566;23;19918;-74
2022/08/12 19:37:03;;;;;;;;;;;21.60;99.90;;;;;;6162489;23;19916;-74
2022/08/12 19:39:38;;;;;;;;;;;21.50;99.90;;;;;;6212774;23;19923;-73
2022/08/12 19:42:04;;;;;;;;;;;21.30;99.90;;;;;;6188573;23;20029;-72
2022/08/12 19:44:31;;;;;;;;;;;21.20;99.90;;;;;;6164648;23;19959;-79
2022/08/12 19:47:00;;;;;;;;;;;21.10;99.90;;;;;;6189563;23;19951;-79
2022/08/12 19:49:29;;;;;;;;;;;21.00;99.90;;;;;;6189828;23;20293;-79
2022/08/12 19:51:54;;;;;;;;;;;21.00;99.90;;;;;;6189495;23;19923;-67
2022/08/12 19:54:21;;;;;;;;;;;20.90;99.90;;;;;;6189793;23;19915;-70